aviador You're here:

SBPA Decoded Metar

PORTO ALEGRE in BRAZIL
Report Time2018-02-21 05:00:00
UTC Time2018-02-21 05:21:59
Flight Rules ifr IFR
Wind270° at 06 kt
W.Decomp.*RWY 29: 6.0 kt HW 0.4 kt LCW
W.Rank270° ranks 10
Current wind is below 270° avg. (7.2)
Visibility9999 m
Phenomena:N/A
Clouds:Broken 005 Hf
Overcast 040 Hf
Expected CloudBase > 400 ft AGL from Temp-Dew spread
Ceiling500 ft
Temp22°C (ISA +7)
Dew Point21°C (94% RH)
QNH1005 hPa
Density Alt1,427 ft
Elevation10 ft
Report Wrong Elevation
Raw Report
METAR SBPA 210500Z 27006KT 9999 BKN005 OVC040 22/21 Q1005=

Extra information for SBPA:More info

Metar Taf Metar & Taf Last 4 Metars F.Rules Stats Wind Profile Meteogram Temp Stats Airport Information Weather charts Add Link Nearby VenuesMetar ALERT Operation Metar Decoded Social comments